Time;durP1;ratioP1;P1;durP2;ratioP2;P2;SDS_P1;SDS_P2;PMS_P1;PMS_P2;Temp;Humidity;BMP_temperature;BMP_pressure;BME280_temperature;BME280_humidity;BME280_pressure;Samples;Min_cycle;Max_cycle;Signal;HPM_P1;HPM_P2
2022/07/21 00:00:07;;;;;;;10.32;5.70;;;31.20;37.40;;;;;;6282266;28;20071;-76
2022/07/21 00:03:08;;;;;;;9.00;5.10;;;31.10;38.10;;;;;;6292209;28;20025;-74
2022/07/21 00:06:09;;;;;;;9.10;5.57;;;31.10;37.50;;;;;;6287773;28;20082;-74
2022/07/21 00:09:10;;;;;;;7.55;5.32;;;31.00;37.50;;;;;;6287793;28;20618;-74
2022/07/21 00:12:11;;;;;;;10.43;5.57;;;31.00;37.60;;;;;;6283207;28;20056;-74
2022/07/21 00:15:14;;;;;;;11.00;5.50;;;31.00;37.70;;;;;;6285690;28;20457;-74
2022/07/21 00:18:16;;;;;;;11.05;5.97;;;30.90;37.80;;;;;;6287403;28;20025;-74
2022/07/21 00:21:17;;;;;;;7.30;5.18;;;30.90;37.90;;;;;;6282046;28;20082;-74
2022/07/21 00:24:17;;;;;;;10.93;5.30;;;30.90;37.80;;;;;;6273068;28;20041;-76
2022/07/21 00:27:18;;;;;;;10.98;5.18;;;30.90;37.90;;;;;;6276965;28;20449;-75
2022/07/21 00:30:20;;;;;;;10.43;5.47;;;30.90;37.90;;;;;;6288359;28;20308;-74
2022/07/21 00:33:21;;;;;;;8.63;4.93;;;30.80;37.90;;;;;;6275050;28;20082;-74
2022/07/21 00:36:22;;;;;;;11.10;5.15;;;30.90;37.90;;;;;;6282737;28;20033;-74
2022/07/21 00:39:23;;;;;;;11.82;5.88;;;30.90;37.90;;;;;;6289315;28;20453;-74
2022/07/21 00:42:27;;;;;;;12.38;5.75;;;30.90;37.90;;;;;;6276779;28;20120;-74
2022/07/21 00:45:27;;;;;;;8.82;5.32;;;30.90;37.90;;;;;;6281790;28;20033;-74
2022/07/21 00:48:28;;;;;;;9.68;5.72;;;30.90;37.90;;;;;;6284156;28;20039;-75
2022/07/21 00:51:29;;;;;;;9.40;5.38;;;30.90;37.90;;;;;;6269280;28;20020;-75
2022/07/21 00:54:30;;;;;;;15.38;5.72;;;31.00;38.00;;;;;;6284566;28;20429;-74
2022/07/21 00:57:31;;;;;;;15.82;6.32;;;31.00;38.00;;;;;;6282569;28;20032;-75
2022/07/21 01:00:32;;;;;;;9.07;5.68;;;30.90;38.60;;;;;;6279386;28;20535;-75
2022/07/21 01:03:33;;;;;;;8.23;5.68;;;30.90;37.90;;;;;;6278250;28;20025;-75
2022/07/21 01:06:34;;;;;;;9.77;5.38;;;30.90;38.10;;;;;;6286369;28;20031;-75
2022/07/21 01:09:35;;;;;;;10.65;5.43;;;30.80;38.20;;;;;;6298010;28;20357;-75
2022/07/21 01:12:37;;;;;;;8.68;5.75;;;30.70;38.30;;;;;;6277141;28;20469;-74
2022/07/21 01:15:38;;;;;;;10.10;5.75;;;30.60;38.40;;;;;;6285374;28;20028;-75
2022/07/21 01:18:39;;;;;;;9.70;5.43;;;30.60;38.60;;;;;;6284454;28;20516;-74
2022/07/21 01:21:42;;;;;;;11.30;5.78;;;30.50;38.70;;;;;;6269852;28;20091;-74
2022/07/21 01:24:43;;;;;;;13.57;5.93;;;30.50;38.90;;;;;;6274596;28;20040;-74
2022/07/21 01:27:44;;;;;;;13.25;6.13;;;30.50;38.90;;;;;;6274526;28;20469;-75
2022/07/21 01:30:46;;;;;;;12.52;5.88;;;30.50;38.90;;;;;;6281228;28;20469;-76
2022/07/21 01:33:47;;;;;;;11.02;6.07;;;30.50;38.90;;;;;;6262472;28;20042;-73
2022/07/21 01:36:48;;;;;;;9.82;5.18;;;30.50;38.90;;;;;;6291641;28;20036;-74
2022/07/21 01:43:11;;;;;;;10.13;5.13;;;30.40;38.90;;;;;;6269874;28;20048;-74
2022/07/21 01:46:13;;;;;;;13.40;5.90;;;30.40;38.90;;;;;;6282892;28;20017;-74
2022/07/21 01:49:17;;;;;;;10.15;5.72;;;30.40;39.00;;;;;;6288343;28;20032;-75
2022/07/21 01:52:17;;;;;;;12.90;5.85;;;30.30;39.00;;;;;;6276570;28;20033;-74
2022/07/21 01:55:18;;;;;;;7.65;5.18;;;30.30;39.10;;;;;;6279744;28;20116;-74
2022/07/21 01:58:19;;;;;;;10.07;5.35;;;30.30;39.20;;;;;;6281107;28;20507;-74
2022/07/21 02:01:22;;;;;;;10.27;5.30;;;30.20;39.20;;;;;;6277749;28;20373;-74
2022/07/21 02:04:23;;;;;;;9.85;6.13;;;30.30;39.20;;;;;;6273907;28;20028;-75
2022/07/21 02:07:23;;;;;;;9.63;5.95;;;30.30;39.70;;;;;;6287615;28;20025;-75
2022/07/21 02:10:24;;;;;;;11.45;5.40;;;30.30;39.30;;;;;;6282616;28;20033;-75
2022/07/21 02:13:26;;;;;;;10.45;5.28;;;30.30;39.30;;;;;;6283396;28;20032;-75
2022/07/21 02:16:27;;;;;;;11.50;6.03;;;30.20;39.30;;;;;;6283969;28;20060;-74
2022/07/21 02:19:28;;;;;;;8.55;6.20;;;30.20;39.20;;;;;;6291315;28;20094;-75
2022/07/21 02:22:29;;;;;;;9.30;5.45;;;30.20;39.30;;;;;;6279918;28;20115;-75
2022/07/21 02:25:29;;;;;;;10.05;5.72;;;30.20;39.30;;;;;;6281312;28;20025;-75
2022/07/21 02:28:30;;;;;;;9.27;5.22;;;30.20;39.40;;;;;;6289078;28;20215;-74
2022/07/21 02:31:33;;;;;;;8.50;5.25;;;30.30;39.30;;;;;;6276340;28;20024;-75
2022/07/21 02:34:34;;;;;;;11.90;5.40;;;30.20;39.20;;;;;;6286387;28;20414;-75
2022/07/21 02:37:37;;;;;;;6.93;4.80;;;30.20;39.10;;;;;;6285438;28;20127;-75
2022/07/21 02:40:39;;;;;;;11.98;5.57;;;30.30;39.20;;;;;;6277607;28;20458;-75
2022/07/21 02:43:40;;;;;;;7.55;5.07;;;30.30;39.20;;;;;;6280656;28;20028;-75
2022/07/21 02:46:41;;;;;;;8.77;5.28;;;30.30;39.10;;;;;;6264375;28;20427;-75
2022/07/21 02:49:42;;;;;;;10.50;5.50;;;30.30;39.20;;;;;;6288306;28;20033;-75
2022/07/21 02:52:43;;;;;;;8.27;5.30;;;30.20;39.20;;;;;;6279345;28;20025;-75
2022/07/21 02:55:45;;;;;;;14.35;5.82;;;30.20;39.30;;;;;;6271463;28;20055;-76
2022/07/21 02:58:46;;;;;;;8.85;5.50;;;30.20;39.30;;;;;;6284651;28;20033;-73
2022/07/21 03:01:47;;;;;;;13.80;6.05;;;30.10;39.40;;;;;;6287113;28;20028;-73
2022/07/21 03:04:48;;;;;;;10.27;5.35;;;30.10;39.50;;;;;;6283039;28;20380;-73
2022/07/21 03:07:49;;;;;;;10.77;5.75;;;30.10;39.50;;;;;;6284184;28;20496;-75
2022/07/21 03:10:50;;;;;;;9.02;4.82;;;30.00;39.40;;;;;;6283141;28;20553;-74
2022/07/21 03:13:51;;;;;;;9.15;5.20;;;30.00;39.60;;;;;;6276949;28;20037;-74
2022/07/21 03:16:52;;;;;;;8.23;5.53;;;29.90;39.60;;;;;;6286020;28;20119;-74
2022/07/21 03:19:52;;;;;;;9.95;6.05;;;29.90;39.70;;;;;;6287645;28;20035;-74
2022/07/21 03:22:54;;;;;;;9.73;5.50;;;29.80;39.70;;;;;;6276661;28;20068;-76
2022/07/21 03:25:54;;;;;;;9.40;5.38;;;29.90;39.80;;;;;;6258737;28;20044;-74
2022/07/21 03:28:55;;;;;;;8.82;5.15;;;29.90;39.70;;;;;;6270362;28;20025;-74
2022/07/21 03:31:56;;;;;;;7.35;4.93;;;30.00;39.60;;;;;;6290269;28;20024;-77
2022/07/21 03:34:57;;;;;;;8.85;4.82;;;30.00;39.50;;;;;;6277438;28;20052;-74
2022/07/21 03:38:00;;;;;;;9.98;5.03;;;30.00;39.50;;;;;;6289164;28;20033;-74
2022/07/21 03:41:01;;;;;;;10.15;5.35;;;30.10;39.40;;;;;;6284655;28;20040;-74
2022/07/21 03:44:02;;;;;;;12.23;5.45;;;30.10;39.30;;;;;;6276116;28;20366;-75
2022/07/21 03:47:03;;;;;;;9.35;5.10;;;30.10;39.30;;;;;;6286292;28;20112;-74
2022/07/21 03:50:05;;;;;;;8.70;4.85;;;30.10;39.20;;;;;;6287763;28;20028;-75
2022/07/21 03:53:07;;;;;;;10.55;4.90;;;30.00;39.20;;;;;;6268170;28;20029;-74
2022/07/21 03:56:08;;;;;;;10.30;4.97;;;30.00;39.20;;;;;;6277114;28;20025;-75
2022/07/21 03:59:09;;;;;;;10.95;5.38;;;30.00;39.30;;;;;;6285240;28;20017;-75
2022/07/21 04:02:10;;;;;;;10.20;5.05;;;30.00;39.30;;;;;;6286661;28;20191;-75
2022/07/21 04:05:12;;;;;;;13.10;5.25;;;30.00;39.30;;;;;;6284006;28;20034;-74
2022/07/21 04:08:14;;;;;;;7.70;5.07;;;30.00;39.20;;;;;;6287278;28;20108;-75
2022/07/21 04:11:15;;;;;;;9.48;4.40;;;30.00;39.30;;;;;;6288040;28;20358;-75
2022/07/21 04:14:16;;;;;;;14.18;4.88;;;29.80;39.30;;;;;;6274336;28;20022;-75
2022/07/21 04:17:16;;;;;;;9.57;4.75;;;29.80;39.30;;;;;;6294664;28;20472;-75
2022/07/21 04:20:18;;;;;;;8.75;4.68;;;29.80;39.30;;;;;;6283923;28;20078;-75
2022/07/21 04:23:19;;;;;;;11.05;5.03;;;29.80;39.30;;;;;;6284326;28;20041;-75
2022/07/21 04:26:20;;;;;;;8.27;5.13;;;29.80;39.30;;;;;;6271857;28;20037;-75
2022/07/21 04:29:21;;;;;;;7.60;4.80;;;29.80;39.30;;;;;;6291030;28;20613;-75
2022/07/21 04:32:22;;;;;;;9.25;4.88;;;29.70;39.30;;;;;;6272729;28;20021;-75
2022/07/21 04:35:23;;;;;;;10.57;4.78;;;29.70;39.40;;;;;;6292597;28;20476;-75
2022/07/21 04:38:24;;;;;;;9.43;4.68;;;29.70;39.30;;;;;;6281879;28;20032;-75
2022/07/21 04:41:25;;;;;;;6.80;4.82;;;29.70;39.40;;;;;;6282460;28;20029;-75
2022/07/21 04:44:26;;;;;;;12.32;5.10;;;29.60;39.40;;;;;;6274884;28;20020;-75
2022/07/21 04:47:26;;;;;;;13.60;4.70;;;29.60;39.60;;;;;;6261654;28;20033;-74
2022/07/21 04:50:28;;;;;;;6.28;4.60;;;29.60;39.50;;;;;;6286241;28;20021;-74
2022/07/21 04:53:28;;;;;;;11.70;5.22;;;29.60;39.50;;;;;;6272715;28;20377;-75
2022/07/21 04:56:29;;;;;;;9.20;5.13;;;29.60;39.40;;;;;;6279108;28;20037;-75
2022/07/21 04:59:30;;;;;;;8.48;5.03;;;29.50;39.40;;;;;;6274151;28;20033;-75
2022/07/21 05:02:31;;;;;;;10.48;5.18;;;29.50;39.60;;;;;;6290033;28;20043;-75
2022/07/21 05:05:32;;;;;;;9.55;5.10;;;29.40;39.60;;;;;;6290144;28;20040;-75
2022/07/21 05:08:33;;;;;;;8.88;4.47;;;29.50;39.80;;;;;;6286286;28;20021;-75
2022/07/21 05:11:34;;;;;;;8.98;5.40;;;29.50;39.70;;;;;;6286587;28;20025;-75
2022/07/21 05:14:36;;;;;;;16.30;4.95;;;29.50;39.70;;;;;;6284366;28;20070;-74
2022/07/21 05:17:37;;;;;;;11.35;5.38;;;29.40;39.70;;;;;;6283303;28;20028;-75
2022/07/21 05:20:38;;;;;;;9.73;5.18;;;29.20;40.00;;;;;;6281352;28;20029;-75
2022/07/21 05:23:39;;;;;;;11.88;5.30;;;29.10;40.40;;;;;;6273355;28;20059;-75
2022/07/21 05:26:40;;;;;;;9.60;4.97;;;29.00;40.80;;;;;;6271649;28;20025;-75
2022/07/21 05:29:41;;;;;;;20.27;5.43;;;28.90;41.10;;;;;;6282391;28;20043;-75
2022/07/21 05:32:42;;;;;;;12.90;4.78;;;28.80;41.40;;;;;;6269992;28;20567;-76
2022/07/21 05:35:43;;;;;;;14.70;5.10;;;28.70;41.50;;;;;;6274474;28;20025;-74
2022/07/21 05:38:44;;;;;;;12.45;5.57;;;28.60;41.80;;;;;;6275584;28;20124;-76
2022/07/21 05:41:45;;;;;;;10.48;5.80;;;28.60;42.00;;;;;;6286239;28;20039;-75
2022/07/21 05:44:45;;;;;;;10.70;4.78;;;28.60;42.00;;;;;;6286316;28;20353;-75
2022/07/21 05:47:46;;;;;;;13.23;5.22;;;28.70;42.00;;;;;;6276708;28;20037;-74
2022/07/21 05:50:47;;;;;;;11.50;5.07;;;28.80;42.50;;;;;;6277271;28;20052;-74
2022/07/21 05:53:48;;;;;;;9.77;5.10;;;29.00;41.60;;;;;;6276531;28;20111;-75
2022/07/21 05:56:49;;;;;;;11.95;5.18;;;29.00;41.40;;;;;;6283529;28;20028;-75
2022/07/21 05:59:50;;;;;;;13.77;5.30;;;29.00;41.40;;;;;;6281723;28;20032;-74
2022/07/21 06:02:51;;;;;;;10.80;5.18;;;29.00;41.40;;;;;;6281419;28;20465;-74
2022/07/21 06:05:52;;;;;;;11.02;5.18;;;29.10;41.50;;;;;;6284912;28;20040;-75
2022/07/21 06:08:53;;;;;;;8.82;5.03;;;29.20;41.40;;;;;;6287233;28;20017;-75
2022/07/21 06:11:54;;;;;;;11.07;5.15;;;29.30;41.10;;;;;;6280909;28;20052;-75
2022/07/21 06:14:55;;;;;;;8.77;4.95;;;29.40;41.00;;;;;;6289128;28;20024;-74
2022/07/21 06:17:56;;;;;;;10.90;5.45;;;29.40;40.90;;;;;;6292954;28;20033;-75
2022/07/21 06:20:57;;;;;;;11.40;5.35;;;29.40;40.90;;;;;;6274605;28;20036;-75
2022/07/21 06:23:59;;;;;;;11.90;5.20;;;29.40;40.80;;;;;;6287089;28;20122;-75
2022/07/21 06:26:59;;;;;;;12.63;5.50;;;29.30;40.80;;;;;;6275721;28;20029;-75
2022/07/21 06:30:01;;;;;;;9.23;4.80;;;29.30;40.90;;;;;;6287130;28;20468;-74
2022/07/21 06:33:02;;;;;;;12.82;5.05;;;29.40;41.00;;;;;;6266149;28;20029;-76
2022/07/21 06:36:03;;;;;;;9.93;5.07;;;29.40;41.00;;;;;;6288010;28;20033;-76
2022/07/21 06:39:04;;;;;;;10.80;4.82;;;29.40;41.00;;;;;;6298131;28;20108;-75
2022/07/21 06:42:05;;;;;;;12.93;5.75;;;29.40;40.70;;;;;;6285240;28;20055;-77
2022/07/21 06:45:10;;;;;;;9.27;5.53;;;29.50;40.80;;;;;;6268940;28;20025;-75
2022/07/21 06:48:12;;;;;;;9.63;5.07;;;29.50;40.80;;;;;;6287588;28;20157;-75
2022/07/21 06:51:13;;;;;;;12.50;5.43;;;29.60;40.70;;;;;;6292056;28;20430;-75
2022/07/21 06:54:14;;;;;;;12.65;5.25;;;29.60;40.50;;;;;;6278392;28;20033;-75
2022/07/21 06:57:14;;;;;;;9.43;4.47;;;29.70;40.40;;;;;;6287965;28;20024;-74
2022/07/21 07:00:16;;;;;;;9.77;5.15;;;29.80;40.30;;;;;;6287763;28;20036;-74
2022/07/21 07:03:18;;;;;;;9.18;5.40;;;29.80;40.20;;;;;;6261667;28;20041;-75
2022/07/21 07:06:19;;;;;;;9.18;4.85;;;29.90;40.00;;;;;;6290182;28;20102;-74
2022/07/21 07:09:20;;;;;;;9.65;4.65;;;29.80;40.00;;;;;;6277172;28;20120;-73
2022/07/21 07:12:21;;;;;;;10.05;4.53;;;29.90;40.00;;;;;;6269531;28;20025;-73
2022/07/21 07:15:23;;;;;;;9.38;5.22;;;30.00;39.90;;;;;;6268159;28;20406;-73
2022/07/21 07:18:24;;;;;;;8.15;4.72;;;30.00;39.70;;;;;;6263304;28;20610;-75
2022/07/21 07:21:25;;;;;;;11.25;5.28;;;30.10;39.50;;;;;;6287652;28;20032;-74
2022/07/21 07:24:26;;;;;;;17.88;4.97;;;30.00;39.40;;;;;;6269485;28;20036;-74
2022/07/21 07:27:27;;;;;;;10.68;4.85;;;30.00;39.30;;;;;;6276634;28;20104;-75
2022/07/21 07:30:28;;;;;;;10.25;4.47;;;30.00;39.30;;;;;;6284209;28;20020;-75
2022/07/21 07:33:29;;;;;;;9.70;4.90;;;30.10;39.20;;;;;;6287913;28;20112;-74
2022/07/21 07:36:31;;;;;;;13.10;4.80;;;30.10;39.20;;;;;;6290587;28;20446;-74
2022/07/21 07:39:32;;;;;;;7.63;4.53;;;30.10;39.10;;;;;;6280355;28;20066;-75
2022/07/21 07:42:33;;;;;;;9.27;4.90;;;30.20;39.00;;;;;;6264567;28;20033;-73
2022/07/21 07:45:36;;;;;;;11.80;5.30;;;30.30;38.90;;;;;;6270852;28;20362;-74
2022/07/21 07:48:37;;;;;;;10.23;5.50;;;30.40;38.70;;;;;;6291830;28;20027;-74
2022/07/21 07:51:38;;;;;;;16.50;4.78;;;30.60;38.50;;;;;;6283359;28;20029;-74
2022/07/21 07:54:39;;;;;;;6.60;4.43;;;30.70;38.30;;;;;;6280506;28;20056;-75
2022/07/21 07:57:42;;;;;;;10.88;4.40;;;30.80;38.00;;;;;;6276550;28;20120;-75
2022/07/21 08:00:43;;;;;;;12.45;4.55;;;31.00;37.80;;;;;;6286832;28;20119;-75
2022/07/21 08:03:43;;;;;;;13.95;4.75;;;31.10;37.50;;;;;;6287072;28;20304;-75
2022/07/21 08:06:44;;;;;;;7.93;5.13;;;31.10;37.30;;;;;;6273464;28;20082;-75
2022/07/21 08:09:45;;;;;;;13.20;4.43;;;31.20;37.00;;;;;;6282428;28;20077;-75
2022/07/21 08:12:47;;;;;;;6.55;4.13;;;31.20;36.70;;;;;;6274104;28;20021;-75
2022/07/21 08:15:49;;;;;;;13.13;4.70;;;31.20;36.70;;;;;;6280361;28;20043;-78
2022/07/21 08:18:50;;;;;;;6.90;4.15;;;31.30;36.50;;;;;;6276951;28;20121;-75
2022/07/21 08:21:51;;;;;;;13.27;4.22;;;31.30;36.40;;;;;;6261713;28;20037;-75
2022/07/21 08:24:52;;;;;;;9.23;4.72;;;31.30;36.30;;;;;;6275372;28;20040;-76
2022/07/21 08:27:53;;;;;;;9.23;4.82;;;31.30;36.10;;;;;;6282788;28;20421;-76
2022/07/21 08:30:54;;;;;;;8.95;4.32;;;31.30;36.00;;;;;;6292405;28;20054;-75
2022/07/21 08:33:55;;;;;;;8.23;3.80;;;31.40;36.00;;;;;;6278816;28;20043;-75
2022/07/21 08:36:56;;;;;;;10.02;3.70;;;31.50;35.80;;;;;;6276432;28;20079;-75
2022/07/21 08:39:57;;;;;;;11.48;3.92;;;31.60;35.50;;;;;;6272704;28;20427;-75
2022/07/21 08:42:59;;;;;;;8.52;3.92;;;31.80;35.40;;;;;;6278851;28;20037;-74
2022/07/21 08:46:00;;;;;;;9.93;3.70;;;31.80;35.30;;;;;;6271973;28;20071;-73
2022/07/21 08:49:03;;;;;;;7.03;4.15;;;31.90;35.10;;;;;;6271336;28;20044;-75
2022/07/21 08:52:07;;;;;;;4.05;3.40;;;32.00;35.00;;;;;;6284899;28;20052;-75
2022/07/21 08:55:07;;;;;;;6.43;3.47;;;32.10;34.80;;;;;;6283723;28;20341;-74
2022/07/21 08:58:11;;;;;;;5.15;3.50;;;32.20;34.70;;;;;;6261062;28;20037;-74
2022/07/21 09:01:12;;;;;;;8.32;4.13;;;32.30;34.00;;;;;;6280430;28;20110;-75
2022/07/21 09:04:21;;;;;;;8.20;4.05;;;32.30;34.50;;;;;;6264081;28;20102;-76
2022/07/21 09:07:25;;;;;;;7.25;3.75;;;32.30;34.20;;;;;;6271404;28;20111;-75
2022/07/21 09:10:28;;;;;;;9.43;4.43;;;32.30;34.00;;;;;;6262516;28;20103;-75
2022/07/21 09:13:29;;;;;;;8.10;3.88;;;32.40;33.90;;;;;;6257493;28;20030;-75
2022/07/21 09:16:37;;;;;;;9.23;4.45;;;32.50;34.50;;;;;;6263362;28;20041;-74
2022/07/21 09:19:38;;;;;;;12.50;4.28;;;32.50;33.90;;;;;;6263146;28;20044;-76
2022/07/21 09:23:02;;;;;;;18.70;4.22;;;32.60;33.70;;;;;;6252130;28;20162;-75
2022/07/21 09:26:03;;;;;;;5.97;3.55;;;32.70;33.50;;;;;;6272101;28;20029;-75
2022/07/21 09:29:10;;;;;;;7.32;3.80;;;32.80;33.30;;;;;;6266281;28;20361;-76
2022/07/21 09:32:30;;;;;;;13.77;4.27;;;32.90;33.30;;;;;;6264866;28;20033;-75
2022/07/21 09:35:31;;;;;;;11.98;4.00;;;33.00;33.10;;;;;;6261467;28;20111;-75
2022/07/21 09:38:34;;;;;;;7.18;4.30;;;33.00;33.10;;;;;;6281541;28;20531;-75
2022/07/21 09:41:35;;;;;;;7.28;3.85;;;33.00;32.90;;;;;;6270491;28;20584;-75
2022/07/21 09:44:36;;;;;;;8.68;4.00;;;33.00;32.90;;;;;;6268284;28;20042;-75
2022/07/21 09:47:39;;;;;;;6.07;4.28;;;33.00;33.10;;;;;;6268938;28;20056;-77
2022/07/21 09:50:40;;;;;;;6.00;3.70;;;33.00;33.10;;;;;;6269768;28;20021;-77
2022/07/21 09:53:57;;;;;;;5.60;3.75;;;33.10;33.00;;;;;;6266158;28;20036;-74
2022/07/21 09:56:58;;;;;;;12.67;4.40;;;33.10;32.80;;;;;;6282442;28;20036;-77
2022/07/21 10:00:04;;;;;;;10.55;4.63;;;33.10;32.70;;;;;;6265516;28;20064;-76
2022/07/21 10:03:05;;;;;;;12.70;4.10;;;33.00;32.70;;;;;;6264032;28;20068;-75
2022/07/21 10:06:06;;;;;;;8.52;3.58;;;33.00;32.80;;;;;;6269687;28;20052;-76
2022/07/21 10:09:09;;;;;;;9.25;4.22;;;33.00;32.80;;;;;;6274914;28;20025;-75
2022/07/21 10:12:10;;;;;;;14.98;3.60;;;33.10;32.80;;;;;;6266646;28;20501;-75
2022/07/21 10:15:12;;;;;;;8.82;3.55;;;33.10;32.70;;;;;;6272605;28;20034;-75
2022/07/21 10:18:17;;;;;;;10.73;4.22;;;33.10;32.70;;;;;;6281163;28;20074;-75
2022/07/21 10:21:30;;;;;;;7.00;4.25;;;33.10;32.80;;;;;;6272472;28;20342;-75
2022/07/21 10:24:32;;;;;;;5.63;4.10;;;33.10;32.70;;;;;;6282309;28;20048;-74
2022/07/21 10:27:33;;;;;;;7.82;4.00;;;33.20;32.60;;;;;;6264654;28;20422;-74
2022/07/21 10:30:38;;;;;;;6.00;4.00;;;33.30;32.60;;;;;;6274859;28;20443;-74
2022/07/21 10:33:45;;;;;;;14.90;3.97;;;33.40;32.60;;;;;;6260719;28;20112;-75
2022/07/21 10:36:46;;;;;;;6.22;4.40;;;33.50;32.40;;;;;;6282981;28;20299;-74
2022/07/21 10:39:47;;;;;;;7.65;4.57;;;33.50;32.30;;;;;;6262870;28;20055;-74
2022/07/21 10:43:00;;;;;;;5.35;3.75;;;33.50;32.30;;;;;;6273906;28;20117;-73
2022/07/21 10:46:01;;;;;;;5.28;3.63;;;33.50;32.30;;;;;;6258773;28;20025;-76
2022/07/21 10:49:05;;;;;;;6.97;4.20;;;33.50;32.20;;;;;;6261681;28;20050;-74
2022/07/21 10:52:34;;;;;;;6.70;3.70;;;33.60;32.20;;;;;;6273384;28;20021;-74
2022/07/21 10:55:36;;;;;;;8.05;3.78;;;33.60;32.10;;;;;;6276977;28;20025;-74
2022/07/21 10:58:39;;;;;;;7.80;3.45;;;33.70;31.90;;;;;;6262495;28;20036;-75
2022/07/21 11:01:40;;;;;;;7.68;4.05;;;33.80;32.00;;;;;;6265954;28;20036;-75
2022/07/21 11:05:20;;;;;;;6.03;3.53;;;33.80;31.90;;;;;;6264449;28;20348;-75
2022/07/21 11:08:29;;;;;;;7.88;3.95;;;34.00;31.70;;;;;;6278592;28;20049;-75
2022/07/21 11:11:58;;;;;;;5.90;3.65;;;34.70;30.60;;;;;;6280285;28;20111;-74
2022/07/21 11:15:00;;;;;;;11.82;4.07;;;35.90;29.50;;;;;;6293406;28;20040;-73
2022/07/21 11:18:01;;;;;;;5.57;3.85;;;36.60;28.50;;;;;;6288790;28;20066;-72
2022/07/21 11:21:11;;;;;;;8.60;3.88;;;37.10;27.90;;;;;;6280735;28;20040;-71
2022/07/21 11:24:19;;;;;;;8.45;3.85;;;37.60;27.50;;;;;;6296962;28;20500;-72
2022/07/21 11:27:22;;;;;;;5.53;3.72;;;37.90;27.20;;;;;;6284173;28;20048;-73
2022/07/21 11:30:23;;;;;;;4.38;3.30;;;38.10;27.00;;;;;;6297255;28;20036;-74
2022/07/21 11:33:25;;;;;;;7.93;3.60;;;38.40;26.70;;;;;;6279258;28;20029;-78
2022/07/21 11:36:31;;;;;;;4.45;3.33;;;38.70;26.50;;;;;;6276667;28;20118;-79
2022/07/21 11:39:32;;;;;;;5.57;3.35;;;38.70;26.30;;;;;;6267304;28;20041;-78
2022/07/21 11:42:34;;;;;;;8.38;4.00;;;38.80;26.30;;;;;;6261630;28;20062;-77
2022/07/21 11:45:35;;;;;;;7.72;3.67;;;38.90;26.20;;;;;;6261572;28;20124;-77
2022/07/21 11:48:36;;;;;;;8.40;3.90;;;39.00;26.20;;;;;;6259664;28;20455;-77
2022/07/21 11:51:37;;;;;;;7.55;3.53;;;39.30;25.90;;;;;;6258207;28;20713;-75
2022/07/21 11:54:45;;;;;;;17.05;3.83;;;39.40;25.80;;;;;;6259712;28;20029;-71
2022/07/21 11:57:46;;;;;;;;;;;39.30;25.90;;;;;;6262650;28;20048;-72
2022/07/21 12:00:47;;;;;;;11.38;3.60;;;39.40;25.80;;;;;;6276846;28;20371;-72
2022/07/21 12:03:51;;;;;;;6.32;3.65;;;39.40;25.70;;;;;;6274487;28;20067;-73
2022/07/21 12:06:52;;;;;;;7.80;4.10;;;39.40;25.60;;;;;;6262954;28;20031;-72
2022/07/21 12:09:57;;;;;;;8.40;3.65;;;39.40;25.60;;;;;;6262898;28;20029;-76
2022/07/21 12:13:05;;;;;;;11.25;3.40;;;39.40;25.50;;;;;;6253558;28;20028;-87
2022/07/21 12:16:06;;;;;;;9.90;3.45;;;39.50;25.50;;;;;;6284898;28;20045;-79
2022/07/21 12:19:16;;;;;;;5.63;3.95;;;39.50;25.50;;;;;;6273944;28;20033;-79
2022/07/21 12:22:43;;;;;;;8.55;4.25;;;39.40;25.40;;;;;;6235545;28;20028;-82
2022/07/21 12:25:44;;;;;;;4.18;3.25;;;39.40;25.40;;;;;;6255362;28;20102;-80
2022/07/21 12:28:47;;;;;;;6.00;3.45;;;39.60;25.20;;;;;;6260326;28;20025;-81
2022/07/21 12:31:49;;;;;;;5.80;3.30;;;39.80;25.10;;;;;;6278001;28;20315;-80
2022/07/21 12:34:52;;;;;;;5.47;3.75;;;40.10;24.90;;;;;;6280618;28;20104;-80
2022/07/21 12:38:08;;;;;;;7.07;3.83;;;40.40;24.70;;;;;;6259662;28;20028;-81
2022/07/21 12:41:14;;;;;;;8.45;3.38;;;40.70;24.50;;;;;;6263252;28;20035;-80
2022/07/21 12:44:15;;;;;;;4.47;3.25;;;41.00;24.10;;;;;;6261880;28;20036;-80
2022/07/21 12:47:18;;;;;;;6.45;3.38;;;41.20;23.80;;;;;;6260094;28;20024;-80
2022/07/21 12:50:19;;;;;;;9.13;3.42;;;41.30;23.60;;;;;;6283090;28;20025;-81
2022/07/21 12:53:20;;;;;;;7.25;3.47;;;41.60;23.40;;;;;;6280669;28;20102;-80
2022/07/21 12:56:24;;;;;;;5.13;3.30;;;41.80;23.10;;;;;;6290811;28;20055;-80
2022/07/21 12:59:25;;;;;;;5.70;4.05;;;42.10;22.70;;;;;;6274406;28;20389;-81
2022/07/21 13:02:29;;;;;;;7.65;3.50;;;42.20;22.40;;;;;;6265848;28;20394;-81
2022/07/21 13:05:30;;;;;;;9.90;3.65;;;42.40;22.10;;;;;;6261149;28;20029;-81
2022/07/21 13:08:32;;;;;;;6.32;2.78;;;42.40;21.90;;;;;;6261072;28;20029;-80
2022/07/21 13:11:33;;;;;;;7.68;3.90;;;42.40;21.90;;;;;;6258333;28;20017;-80
2022/07/21 13:14:34;;;;;;;7.60;3.28;;;42.60;21.80;;;;;;6262108;28;20032;-80
2022/07/21 13:17:35;;;;;;;5.68;3.55;;;43.00;21.60;;;;;;6252307;28;20033;-81
2022/07/21 13:20:36;;;;;;;6.20;2.92;;;43.40;21.20;;;;;;6255415;28;20051;-80
2022/07/21 13:23:39;;;;;;;8.30;3.25;;;43.80;20.80;;;;;;6272522;28;20431;-80
2022/07/21 13:26:42;;;;;;;3.65;2.90;;;44.30;20.50;;;;;;6268780;28;20057;-80
2022/07/21 13:29:43;;;;;;;7.05;2.90;;;44.90;19.90;;;;;;6265925;28;20135;-80
2022/07/21 13:32:44;;;;;;;5.47;2.92;;;45.20;19.50;;;;;;6259919;28;20355;-81
2022/07/21 13:35:45;;;;;;;8.18;3.75;;;45.50;19.10;;;;;;6259005;28;20132;-80
2022/07/21 13:38:46;;;;;;;4.20;3.40;;;45.70;19.00;;;;;;6266237;28;20477;-81
2022/07/21 13:41:48;;;;;;;6.43;3.10;;;46.20;18.80;;;;;;6263123;28;20035;-81
2022/07/21 13:44:48;;;;;;;6.43;3.28;;;46.60;18.10;;;;;;6268071;28;20033;-81
2022/07/21 13:47:53;;;;;;;5.60;2.83;;;46.70;17.90;;;;;;6252460;28;20438;-81
2022/07/21 13:50:57;;;;;;;6.10;3.00;;;46.60;17.80;;;;;;6264837;28;20063;-81
2022/07/21 13:53:58;;;;;;;4.65;3.05;;;46.60;17.60;;;;;;6258581;28;20050;-80
2022/07/21 13:56:59;;;;;;;8.57;3.00;;;46.70;17.50;;;;;;6280453;28;20029;-80
2022/07/21 14:00:01;;;;;;;9.57;3.08;;;46.70;17.40;;;;;;6253776;28;20022;-80
2022/07/21 14:03:05;;;;;;;14.43;3.13;;;46.90;17.30;;;;;;6275036;28;20033;-81
2022/07/21 14:06:06;;;;;;;3.50;3.13;;;47.00;17.30;;;;;;6261442;28;20052;-80
2022/07/21 14:09:07;;;;;;;6.50;2.90;;;47.10;17.30;;;;;;6281202;28;20442;-81
2022/07/21 14:12:09;;;;;;;5.45;2.83;;;47.40;17.00;;;;;;6269183;28;20105;-80
2022/07/21 14:15:10;;;;;;;4.38;3.00;;;47.70;16.70;;;;;;6264175;28;20036;-80
2022/07/21 14:18:11;;;;;;;4.38;2.75;;;47.90;16.50;;;;;;6258829;28;20029;-80
2022/07/21 14:21:13;;;;;;;7.35;3.00;;;48.20;16.30;;;;;;6242688;28;20037;-81
2022/07/21 14:27:33;;;;;;;3.70;2.70;;;48.50;15.80;;;;;;6269822;28;20021;-81
2022/07/21 14:30:35;;;;;;;3.42;3.10;;;48.60;15.70;;;;;;6264179;28;20510;-81
2022/07/21 14:33:36;;;;;;;8.30;3.03;;;48.80;15.40;;;;;;6251434;28;20096;-81
2022/07/21 14:36:37;;;;;;;5.55;2.67;;;48.90;15.30;;;;;;6262991;28;20097;-81
2022/07/21 14:39:38;;;;;;;5.93;2.58;;;49.10;15.00;;;;;;6258128;28;20354;-80
2022/07/21 14:42:39;;;;;;;8.40;2.60;;;48.90;14.90;;;;;;6266370;28;20152;-80
2022/07/21 14:45:40;;;;;;;7.78;2.75;;;48.70;15.00;;;;;;6276238;28;20025;-80
2022/07/21 14:48:41;;;;;;;4.20;2.50;;;48.40;15.00;;;;;;6267358;28;20030;-80
2022/07/21 14:51:42;;;;;;;5.32;2.72;;;48.30;14.90;;;;;;6268417;28;20057;-80
2022/07/21 14:54:43;;;;;;;5.40;2.88;;;48.10;14.70;;;;;;6282766;28;20416;-80
2022/07/21 14:57:45;;;;;;;5.50;2.80;;;48.00;14.80;;;;;;6270469;28;20030;-79
2022/07/21 15:00:46;;;;;;;8.95;2.88;;;47.90;14.90;;;;;;6266520;28;20033;-80
2022/07/21 15:03:47;;;;;;;8.65;2.70;;;47.80;15.00;;;;;;6264117;28;20025;-78
2022/07/21 15:06:50;;;;;;;2.33;1.90;;;47.70;14.80;;;;;;6268652;28;20052;-79
2022/07/21 15:09:51;;;;;;;3.13;2.50;;;47.10;15.10;;;;;;6278808;28;20101;-80
2022/07/21 15:12:52;;;;;;;3.35;2.40;;;45.80;15.90;;;;;;6263239;28;20028;-81
2022/07/21 15:15:53;;;;;;;4.50;2.10;;;44.50;16.80;;;;;;6278782;28;20024;-80
2022/07/21 15:18:54;;;;;;;3.25;2.30;;;43.30;17.60;;;;;;6263845;28;20500;-79
2022/07/21 15:21:55;;;;;;;4.85;2.35;;;42.30;18.20;;;;;;6255497;28;20082;-81
2022/07/21 15:25:00;;;;;;;4.68;2.85;;;41.70;18.50;;;;;;6260452;28;20304;-80
2022/07/21 15:28:01;;;;;;;8.50;2.47;;;41.50;18.70;;;;;;6253929;28;20044;-79
2022/07/21 15:31:02;;;;;;;7.90;2.60;;;42.00;17.70;;;;;;6268498;28;20033;-80
2022/07/21 15:34:04;;;;;;;4.05;2.47;;;42.80;17.20;;;;;;6265235;28;20032;-80
2022/07/21 15:37:06;;;;;;;4.18;1.98;;;43.40;17.00;;;;;;6266341;28;20064;-79
2022/07/21 15:40:08;;;;;;;6.65;2.67;;;44.20;16.90;;;;;;6275651;28;20078;-81
2022/07/21 15:43:09;;;;;;;3.40;2.40;;;44.70;16.30;;;;;;6277441;28;20036;-80
2022/07/21 15:46:10;;;;;;;10.23;2.40;;;45.10;16.30;;;;;;6274310;28;20059;-80
2022/07/21 15:49:11;;;;;;;4.18;2.50;;;45.60;15.90;;;;;;6256781;28;20032;-81